Gulf Titan — WDA5598 — position and weather

sailwx.info

Track history (hours):
 
Tides and Currents Weather Stations Pressure Air Temp Water Temp Dewpoint Dewpoint Depression Visibility Wind Speed Wind Dir Waves Ship Positions

Gulf Titan

Owner: WESTERN TOWBOAT CO, SEATTTLE, WA. More information available from US FCC via Universal Licensing System and Coast Guard Vessel Documentation Center.

Last reported at 2018-May-20 16:01 UTC. Time now 2018-May-24 11:36 UTC.
Position N 47°39' W 122°22'.

Type: Tow > 200 m length. MMSI: 366821830.

Date/timePositionNaut miles runAvg speedWind from/ knotsBaromVisibWave heightAir tempDewpointWater temp
2018-May-20 16:01N 47°39' W 122°22'0 0.4
2018-May-20 16:00N 47°39' W 122°22'1 2.8
2018-May-20 15:30N 47°40' W 122°24'2 4.3
2018-May-20 15:00N 47°39' W 122°26'4 8.9
2018-May-20 14:30N 47°35' W 122°22'0 0.6
2018-May-20 14:00N 47°36' W 122°22'2 4.6
2018-May-20 13:30N 47°37' W 122°25'5 9.2
2018-May-20 13:00N 47°41' W 122°28'3 6.3
2018-May-20 12:30N 47°44' W 122°27'3 6.2
2018-May-20 12:00N 47°47' W 122°28'3 6.3
2018-May-20 11:30N 47°51' W 122°29'3 6.6
2018-May-20 11:00N 47°54' W 122°30'3 5.8
2018-May-20 10:30N 47°56' W 122°33'4 6.7
2018-May-20 09:52N 47°59' W 122°37'3 7.2
2018-May-20 09:28N 48°02' W 122°39'17 7.6
2018-May-20 07:17N 48°17' W 122°48'4 9.9
2018-May-20 06:55N 48°21' W 122°46'4 9.8
2018-May-20 06:30N 48°25' W 122°45'5 9.2
2018-May-20 06:00N 48°29' W 122°44'4 8.6
2018-May-20 05:29N 48°34' W 122°45'4 7.3
2018-May-20 05:00N 48°37' W 122°45'4 7.3
2018-May-20 04:29N 48°41' W 122°44'4 7.1
2018-May-20 03:55N 48°45' W 122°47'18 8.6
2018-May-20 01:46N 48°56' W 123°10'3 8.5
2018-May-20 01:29N 48°57' W 123°13'4 8.4
2018-May-20 00:58N 48°60' W 123°18'37 9.3
2018-May-19 20:59N 49°21' W 124°05'6 9.7
2018-May-19 20:23N 49°23' W 124°12'4 9.4
2018-May-19 19:57N 49°26' W 124°18'5 9.7
2018-May-19 19:29N 49°28' W 124°24'5 9.6
2018-May-19 18:58N 49°32' W 124°29'4 9.3
2018-May-19 18:30N 49°35' W 124°33'5 9.9
2018-May-19 18:00N 49°38' W 124°39'510.0
2018-May-19 17:30N 49°42' W 124°45'510.0
2018-May-19 17:00N 49°45' W 124°50'5 9.8
2018-May-19 16:30N 49°49' W 124°56'5 9.7
2018-May-19 16:00N 49°52' W 125°01'5 9.6
2018-May-19 15:30N 49°55' W 125°06'510.6
2018-May-19 15:00N 49°59' W 125°12'612.0
2018-May-19 14:30N 50°05' W 125°16'612.0
2018-May-19 13:59N 50°10' W 125°21'510.6
2018-May-19 13:30N 50°15' W 125°23'610.6
2018-May-19 12:59N 50°20' W 125°25'3110.6
2018-May-19 10:01N 50°29' W 126°13'4 9.8
2018-May-19 09:36N 50°30' W 126°19'3 9.5
2018-May-19 09:17N 50°30' W 126°24'3 9.4
2018-May-19 09:00N 50°30' W 126°28'5 9.3
2018-May-19 08:30N 50°31' W 126°35'5 8.1
2018-May-19 07:55N 50°33' W 126°41'4 7.9
2018-May-19 07:26N 50°36' W 126°45'510.1
2018-May-19 06:56N 50°40' W 126°51'4 9.6
2018-May-19 06:30N 50°42' W 126°56'5 9.9
2018-May-19 06:00N 50°44' W 127°04'5 9.9
2018-May-19 05:30N 50°46' W 127°10'5 9.8
2018-May-19 05:00N 50°50' W 127°16'5 9.8
2018-May-19 04:30N 50°53' W 127°21'5 9.1
2018-May-19 04:00N 50°56' W 127°27'5 9.1
2018-May-19 03:30N 50°59' W 127°33'4 9.0
2018-May-19 03:00N 51°02' W 127°38'5 9.6
2018-May-19 02:30N 51°05' W 127°43'5 9.9
2018-May-19 02:00N 51°08' W 127°49'510.3
2018-May-19 01:30N 51°13' W 127°53'610.6
2018-May-19 00:59N 51°18' W 127°56'510.4
2018-May-19 00:30N 51°23' W 127°59'5 9.9
2018-May-19 00:00N 51°26' W 128°05'5 9.9
2018-May-18 23:30N 51°29' W 128°11'510.0
2018-May-18 23:00N 51°34' W 128°15'510.0
2018-May-18 22:30N 51°38' W 128°19'510.4
2018-May-18 22:00N 51°42' W 128°23'510.3
2018-May-18 21:30N 51°47' W 128°28'5 9.6
2018-May-18 21:00N 51°51' W 128°32'5 9.6
2018-May-18 20:30N 51°55' W 128°35'5 9.5
2018-May-18 20:00N 51°60' W 128°38'5 9.3
2018-May-18 19:30N 52°04' W 128°41'5 9.3
2018-May-18 19:00N 52°08' W 128°43'5 9.7
2018-May-18 18:30N 52°13' W 128°46'5 9.9
2018-May-18 18:00N 52°18' W 128°47'5 9.6
2018-May-18 17:30N 52°22' W 128°48'5 9.4
2018-May-18 17:00N 52°27' W 128°50'5 9.9
2018-May-18 16:30N 52°32' W 128°52'510.1
2018-May-18 16:00N 52°37' W 128°54'5 9.8
2018-May-18 15:30N 52°41' W 128°58'510.5
2018-May-18 15:00N 52°44' W 129°05'4 8.2
2018-May-18 14:30N 52°47' W 129°10'5 9.9
2018-May-18 13:59N 52°51' W 129°15'5 9.6
2018-May-18 13:27N 52°55' W 129°21'710.6
2018-May-18 12:49N 53°00' W 129°28'410.8
2018-May-18 12:26N 53°03' W 129°32'510.1
2018-May-18 11:58N 53°07' W 129°36'8 9.8
2018-May-18 11:10N 53°14' W 129°43'2 9.7
2018-May-18 11:00N 53°16' W 129°44'5 9.8
2018-May-18 10:28N 53°20' W 129°49'4 9.3
2018-May-18 10:00N 53°24' W 129°53'4 8.8
2018-May-18 09:30N 53°27' W 129°58'5 9.1
2018-May-18 08:58N 53°30' W 130°04'9 8.7
2018-May-18 07:53N 53°35' W 130°17'8 9.3
2018-May-18 06:59N 53°40' W 130°28'4 9.0
2018-May-18 06:31N 53°43' W 130°34'5 9.3
2018-May-18 05:59N 53°46' W 130°41'5 9.5
2018-May-18 05:30N 53°48' W 130°47'5 9.9
2018-May-18 04:59N 53°52' W 130°54'510.3
2018-May-18 04:30N 53°55' W 130°59'510.4
2018-May-18 04:00N 54°00' W 131°02'510.3
2018-May-18 03:30N 54°05' W 131°02'510.1
2018-May-18 03:00N 54°10' W 131°02'5 9.7
2018-May-18 02:30N 54°15' W 131°03'5 9.2
2018-May-18 02:00N 54°20' W 131°03'5 9.5
2018-May-18 01:29N 54°25' W 131°03'16 9.4
2018-May-17 23:43N 54°41' W 131°01'2 9.3
2018-May-17 23:28N 54°44' W 131°02'  
2018-May-12 15:23N 54°37' W 130°44'3 7.4
2018-May-12 15:00N 54°34' W 130°44'5 9.9
2018-May-12 14:30N 54°29' W 130°41'510.1
2018-May-12 14:00N 54°25' W 130°39'5 9.9
2018-May-12 13:30N 54°20' W 130°36'5 9.9
2018-May-12 13:00N 54°15' W 130°32'510.3
2018-May-12 12:30N 54°11' W 130°27'510.6
2018-May-12 12:00N 54°07' W 130°22'510.2
2018-May-12 11:30N 54°03' W 130°16'510.0
2018-May-12 11:00N 53°59' W 130°12'5 9.3
2018-May-12 10:30N 53°54' W 130°09'5 9.8
2018-May-12 10:00N 53°51' W 130°03'5 9.3
2018-May-12 09:29N 53°48' W 129°57'96 8.5
2018-May-11 22:11N 52°29' W 128°27'2 9.5
2018-May-11 22:00N 52°27' W 128°28'5 9.7
2018-May-11 21:30N 52°23' W 128°31'5 9.7
2018-May-11 21:00N 52°18' W 128°29'5 9.3
2018-May-11 20:30N 52°15' W 128°23'5 9.8
2018-May-11 20:00N 52°15' W 128°15'5 9.7
2018-May-11 19:30N 52°17' W 128°08'5 9.0
2018-May-11 19:00N 52°18' W 128°01'7 8.6
2018-May-11 18:13N 52°13' W 127°54'310.0
2018-May-11 17:56N 52°11' W 127°52'4 9.8
2018-May-11 17:30N 52°06' W 127°54'510.1
2018-May-11 17:00N 52°01' W 127°55'510.0
2018-May-11 16:30N 51°56' W 127°56'510.1
2018-May-11 16:00N 51°51' W 127°56'5 9.9
2018-May-11 15:30N 51°46' W 127°55'5 9.9
2018-May-11 15:00N 51°42' W 127°55'4 8.4
2018-May-11 14:30N 51°37' W 127°53'5 9.8
2018-May-11 14:00N 51°33' W 127°52'5 9.8
2018-May-11 13:30N 51°28' W 127°51'5 9.8
2018-May-11 13:00N 51°23' W 127°53'5 9.4
2018-May-11 12:29N 51°18' W 127°53'4 9.3
2018-May-11 12:00N 51°14' W 127°52'5 9.2
2018-May-11 11:30N 51°09' W 127°51'4 8.8
2018-May-11 11:00N 51°06' W 127°46'5 9.5
2018-May-11 10:30N 51°03' W 127°40'5 9.7
2018-May-11 10:00N 50°59' W 127°35'510.1
2018-May-11 09:29N 50°57' W 127°28'510.5
2018-May-11 09:00N 50°53' W 127°22'5 9.9
2018-May-11 08:30N 50°50' W 127°16'5 9.6
2018-May-11 07:58N 50°47' W 127°10'5 9.5
2018-May-11 07:28N 50°44' W 127°03'8 9.1
2018-May-11 06:38N 50°41' W 126°53'1 8.8
2018-May-11 06:30N 50°40' W 126°51'4 8.5
2018-May-11 06:00N 50°37' W 126°46'4 8.5
2018-May-11 05:30N 50°34' W 126°41'4 7.8
2018-May-11 05:00N 50°31' W 126°38'5 9.6
2018-May-11 04:29N 50°30' W 126°30'7 9.6
2018-May-11 03:46N 50°30' W 126°19'5 9.1
2018-May-11 03:16N 50°29' W 126°12'3010.4
2018-May-11 00:24N 50°20' W 125°27'4 9.9
2018-May-10 23:59N 50°17' W 125°24'510.8
2018-May-10 23:30N 50°12' W 125°22'510.1
2018-May-10 23:00N 50°07' W 125°19'510.5
2018-May-10 22:30N 50°03' W 125°14'5 9.9
2018-May-10 21:59N 49°58' W 125°11'5 9.4
2018-May-10 21:30N 49°55' W 125°06'510.2
2018-May-10 21:00N 49°52' W 125°00'510.1
2018-May-10 20:30N 49°48' W 124°54'5 9.8
2018-May-10 20:00N 49°45' W 124°49'4 6.9
2018-May-10 19:30N 49°42' W 124°45'510.0
2018-May-10 19:00N 49°39' W 124°40'510.0
2018-May-10 18:28N 49°35' W 124°34'15 9.7
2018-May-10 16:57N 49°25' W 124°17'610.2
2018-May-10 16:22N 49°22' W 124°09'  
Track history (hours):
 
Tides and Currents Weather Stations Pressure Air Temp Water Temp Dewpoint Dewpoint Depression Visibility Wind Speed Wind Dir Waves Ship Positions

Gulf Titan

Owner: WESTERN TOWBOAT CO, SEATTTLE, WA. More information available from US FCC via Universal Licensing System and Coast Guard Vessel Documentation Center.

Last reported at 2018-May-20 16:01 UTC. Time now 2018-May-24 11:36 UTC.
Position N 47°39' W 122°22'.

Type: Tow > 200 m length. MMSI: 366821830.

Date/timePositionNaut miles runAvg speedWind from/ knotsBaromVisibWave heightAir tempDewpointWater temp
2018-May-20 16:01N 47°39' W 122°22'0 0.4
2018-May-20 16:00N 47°39' W 122°22'1 2.8
2018-May-20 15:30N 47°40' W 122°24'2 4.3
2018-May-20 15:00N 47°39' W 122°26'4 8.9
2018-May-20 14:30N 47°35' W 122°22'0 0.6
2018-May-20 14:00N 47°36' W 122°22'2 4.6
2018-May-20 13:30N 47°37' W 122°25'5 9.2
2018-May-20 13:00N 47°41' W 122°28'3 6.3
2018-May-20 12:30N 47°44' W 122°27'3 6.2
2018-May-20 12:00N 47°47' W 122°28'3 6.3
2018-May-20 11:30N 47°51' W 122°29'3 6.6
2018-May-20 11:00N 47°54' W 122°30'3 5.8
2018-May-20 10:30N 47°56' W 122°33'4 6.7
2018-May-20 09:52N 47°59' W 122°37'3 7.2
2018-May-20 09:28N 48°02' W 122°39'17 7.6
2018-May-20 07:17N 48°17' W 122°48'4 9.9
2018-May-20 06:55N 48°21' W 122°46'4 9.8
2018-May-20 06:30N 48°25' W 122°45'5 9.2
2018-May-20 06:00N 48°29' W 122°44'4 8.6
2018-May-20 05:29N 48°34' W 122°45'4 7.3
2018-May-20 05:00N 48°37' W 122°45'4 7.3
2018-May-20 04:29N 48°41' W 122°44'4 7.1
2018-May-20 03:55N 48°45' W 122°47'18 8.6
2018-May-20 01:46N 48°56' W 123°10'3 8.5
2018-May-20 01:29N 48°57' W 123°13'4 8.4
2018-May-20 00:58N 48°60' W 123°18'37 9.3
2018-May-19 20:59N 49°21' W 124°05'6 9.7
2018-May-19 20:23N 49°23' W 124°12'4 9.4
2018-May-19 19:57N 49°26' W 124°18'5 9.7
2018-May-19 19:29N 49°28' W 124°24'5 9.6
2018-May-19 18:58N 49°32' W 124°29'4 9.3
2018-May-19 18:30N 49°35' W 124°33'5 9.9
2018-May-19 18:00N 49°38' W 124°39'510.0
2018-May-19 17:30N 49°42' W 124°45'510.0
2018-May-19 17:00N 49°45' W 124°50'5 9.8
2018-May-19 16:30N 49°49' W 124°56'5 9.7
2018-May-19 16:00N 49°52' W 125°01'5 9.6
2018-May-19 15:30N 49°55' W 125°06'510.6
2018-May-19 15:00N 49°59' W 125°12'612.0
2018-May-19 14:30N 50°05' W 125°16'612.0
2018-May-19 13:59N 50°10' W 125°21'510.6
2018-May-19 13:30N 50°15' W 125°23'610.6
2018-May-19 12:59N 50°20' W 125°25'3110.6
2018-May-19 10:01N 50°29' W 126°13'4 9.8
2018-May-19 09:36N 50°30' W 126°19'3 9.5
2018-May-19 09:17N 50°30' W 126°24'3 9.4
2018-May-19 09:00N 50°30' W 126°28'5 9.3
2018-May-19 08:30N 50°31' W 126°35'5 8.1
2018-May-19 07:55N 50°33' W 126°41'4 7.9
2018-May-19 07:26N 50°36' W 126°45'510.1
2018-May-19 06:56N 50°40' W 126°51'4 9.6
2018-May-19 06:30N 50°42' W 126°56'5 9.9
2018-May-19 06:00N 50°44' W 127°04'5 9.9
2018-May-19 05:30N 50°46' W 127°10'5 9.8
2018-May-19 05:00N 50°50' W 127°16'5 9.8
2018-May-19 04:30N 50°53' W 127°21'5 9.1
2018-May-19 04:00N 50°56' W 127°27'5 9.1
2018-May-19 03:30N 50°59' W 127°33'4 9.0
2018-May-19 03:00N 51°02' W 127°38'5 9.6
2018-May-19 02:30N 51°05' W 127°43'5 9.9
2018-May-19 02:00N 51°08' W 127°49'510.3
2018-May-19 01:30N 51°13' W 127°53'610.6
2018-May-19 00:59N 51°18' W 127°56'510.4
2018-May-19 00:30N 51°23' W 127°59'5 9.9
2018-May-19 00:00N 51°26' W 128°05'5 9.9
2018-May-18 23:30N 51°29' W 128°11'510.0
2018-May-18 23:00N 51°34' W 128°15'510.0
2018-May-18 22:30N 51°38' W 128°19'510.4
2018-May-18 22:00N 51°42' W 128°23'510.3
2018-May-18 21:30N 51°47' W 128°28'5 9.6
2018-May-18 21:00N 51°51' W 128°32'5 9.6
2018-May-18 20:30N 51°55' W 128°35'5 9.5
2018-May-18 20:00N 51°60' W 128°38'5 9.3
2018-May-18 19:30N 52°04' W 128°41'5 9.3
2018-May-18 19:00N 52°08' W 128°43'5 9.7
2018-May-18 18:30N 52°13' W 128°46'5 9.9
2018-May-18 18:00N 52°18' W 128°47'5 9.6
2018-May-18 17:30N 52°22' W 128°48'5 9.4
2018-May-18 17:00N 52°27' W 128°50'5 9.9
2018-May-18 16:30N 52°32' W 128°52'510.1
2018-May-18 16:00N 52°37' W 128°54'5 9.8
2018-May-18 15:30N 52°41' W 128°58'510.5
2018-May-18 15:00N 52°44' W 129°05'4 8.2
2018-May-18 14:30N 52°47' W 129°10'5 9.9
2018-May-18 13:59N 52°51' W 129°15'5 9.6
2018-May-18 13:27N 52°55' W 129°21'710.6
2018-May-18 12:49N 53°00' W 129°28'410.8
2018-May-18 12:26N 53°03' W 129°32'510.1
2018-May-18 11:58N 53°07' W 129°36'8 9.8
2018-May-18 11:10N 53°14' W 129°43'2 9.7
2018-May-18 11:00N 53°16' W 129°44'5 9.8
2018-May-18 10:28N 53°20' W 129°49'4 9.3
2018-May-18 10:00N 53°24' W 129°53'4 8.8
2018-May-18 09:30N 53°27' W 129°58'5 9.1
2018-May-18 08:58N 53°30' W 130°04'9 8.7
2018-May-18 07:53N 53°35' W 130°17'8 9.3
2018-May-18 06:59N 53°40' W 130°28'4 9.0
2018-May-18 06:31N 53°43' W 130°34'5 9.3
2018-May-18 05:59N 53°46' W 130°41'5 9.5
2018-May-18 05:30N 53°48' W 130°47'5 9.9
2018-May-18 04:59N 53°52' W 130°54'510.3
2018-May-18 04:30N 53°55' W 130°59'510.4
2018-May-18 04:00N 54°00' W 131°02'510.3
2018-May-18 03:30N 54°05' W 131°02'510.1
2018-May-18 03:00N 54°10' W 131°02'5 9.7
2018-May-18 02:30N 54°15' W 131°03'5 9.2
2018-May-18 02:00N 54°20' W 131°03'5 9.5
2018-May-18 01:29N 54°25' W 131°03'16 9.4
2018-May-17 23:43N 54°41' W 131°01'2 9.3
2018-May-17 23:28N 54°44' W 131°02'  
2018-May-12 15:23N 54°37' W 130°44'3 7.4
2018-May-12 15:00N 54°34' W 130°44'5 9.9
2018-May-12 14:30N 54°29' W 130°41'510.1
2018-May-12 14:00N 54°25' W 130°39'5 9.9
2018-May-12 13:30N 54°20' W 130°36'5 9.9
2018-May-12 13:00N 54°15' W 130°32'510.3
2018-May-12 12:30N 54°11' W 130°27'510.6
2018-May-12 12:00N 54°07' W 130°22'510.2
2018-May-12 11:30N 54°03' W 130°16'510.0
2018-May-12 11:00N 53°59' W 130°12'5 9.3
2018-May-12 10:30N 53°54' W 130°09'5 9.8
2018-May-12 10:00N 53°51' W 130°03'5 9.3
2018-May-12 09:29N 53°48' W 129°57'96 8.5
2018-May-11 22:11N 52°29' W 128°27'2 9.5
2018-May-11 22:00N 52°27' W 128°28'5 9.7
2018-May-11 21:30N 52°23' W 128°31'5 9.7
2018-May-11 21:00N 52°18' W 128°29'5 9.3
2018-May-11 20:30N 52°15' W 128°23'5 9.8
2018-May-11 20:00N 52°15' W 128°15'5 9.7
2018-May-11 19:30N 52°17' W 128°08'5 9.0
2018-May-11 19:00N 52°18' W 128°01'7 8.6
2018-May-11 18:13N 52°13' W 127°54'310.0
2018-May-11 17:56N 52°11' W 127°52'4 9.8
2018-May-11 17:30N 52°06' W 127°54'510.1
2018-May-11 17:00N 52°01' W 127°55'510.0
2018-May-11 16:30N 51°56' W 127°56'510.1
2018-May-11 16:00N 51°51' W 127°56'5 9.9
2018-May-11 15:30N 51°46' W 127°55'5 9.9
2018-May-11 15:00N 51°42' W 127°55'4 8.4
2018-May-11 14:30N 51°37' W 127°53'5 9.8
2018-May-11 14:00N 51°33' W 127°52'5 9.8
2018-May-11 13:30N 51°28' W 127°51'5 9.8
2018-May-11 13:00N 51°23' W 127°53'5 9.4
2018-May-11 12:29N 51°18' W 127°53'4 9.3
2018-May-11 12:00N 51°14' W 127°52'5 9.2
2018-May-11 11:30N 51°09' W 127°51'4 8.8
2018-May-11 11:00N 51°06' W 127°46'5 9.5
2018-May-11 10:30N 51°03' W 127°40'5 9.7
2018-May-11 10:00N 50°59' W 127°35'510.1
2018-May-11 09:29N 50°57' W 127°28'510.5
2018-May-11 09:00N 50°53' W 127°22'5 9.9
2018-May-11 08:30N 50°50' W 127°16'5 9.6
2018-May-11 07:58N 50°47' W 127°10'5 9.5
2018-May-11 07:28N 50°44' W 127°03'8 9.1
2018-May-11 06:38N 50°41' W 126°53'1 8.8
2018-May-11 06:30N 50°40' W 126°51'4 8.5
2018-May-11 06:00N 50°37' W 126°46'4 8.5
2018-May-11 05:30N 50°34' W 126°41'4 7.8
2018-May-11 05:00N 50°31' W 126°38'5 9.6
2018-May-11 04:29N 50°30' W 126°30'7 9.6
2018-May-11 03:46N 50°30' W 126°19'5 9.1
2018-May-11 03:16N 50°29' W 126°12'3010.4
2018-May-11 00:24N 50°20' W 125°27'4 9.9
2018-May-10 23:59N 50°17' W 125°24'510.8
2018-May-10 23:30N 50°12' W 125°22'510.1
2018-May-10 23:00N 50°07' W 125°19'510.5
2018-May-10 22:30N 50°03' W 125°14'5 9.9
2018-May-10 21:59N 49°58' W 125°11'5 9.4
2018-May-10 21:30N 49°55' W 125°06'510.2
2018-May-10 21:00N 49°52' W 125°00'510.1
2018-May-10 20:30N 49°48' W 124°54'5 9.8
2018-May-10 20:00N 49°45' W 124°49'4 6.9
2018-May-10 19:30N 49°42' W 124°45'510.0
2018-May-10 19:00N 49°39' W 124°40'510.0
2018-May-10 18:28N 49°35' W 124°34'15 9.7
2018-May-10 16:57N 49°25' W 124°17'610.2
2018-May-10 16:22N 49°22' W 124°09'  

Dump ship's entire track history